Aviation Digital Data Service (ADDS)

Output produced by METARs form (0429 UTC 26 June 2016)
found at http://www.aviationweather.gov/adds/metars/
 
KALB 252320Z 2600/2624 VRB03KT P6SM FEW250 
     FM261300 17010KT P6SM SCT040 SCT250